Time;durP1;ratioP1;P1;durP2;ratioP2;P2;SDS_P1;SDS_P2;PMS_P1;PMS_P2;Temp;Humidity;BMP_temperature;BMP_pressure;BME280_temperature;BME280_humidity;BME280_pressure;Samples;Min_cycle;Max_cycle;Signal;HPM_P1;HPM_P2
2022/05/27 00:01:22;;;;;;;10.20;2.37;;;;;;;14.04;62.88;99195.13;1739726;82;21589;-80
2022/05/27 00:03:49;;;;;;;2.02;1.92;;;;;;;14.03;62.96;99186.80;1739743;82;21502;-80
2022/05/27 00:06:15;;;;;;;2.98;1.52;;;;;;;14.02;63.31;99184.63;1740214;82;21522;-81
2022/05/27 00:08:42;;;;;;;2.83;2.20;;;;;;;14.00;63.56;99179.86;1739999;82;21502;-81
2022/05/27 00:11:08;;;;;;;3.77;2.10;;;;;;;13.99;63.67;99178.17;1739910;82;22185;-81
2022/05/27 00:13:35;;;;;;;3.80;1.98;;;;;;;13.98;64.00;99183.06;1739864;82;21062;-81
2022/05/27 00:16:01;;;;;;;4.40;2.17;;;;;;;13.96;64.13;99193.36;1739957;82;22179;-80
2022/05/27 00:18:28;;;;;;;9.25;2.25;;;;;;;13.93;64.25;99189.08;1739865;82;21015;-81
2022/05/27 00:20:56;;;;;;;2.05;1.92;;;;;;;13.93;64.32;99200.50;1739805;82;21031;-80
2022/05/27 00:23:22;;;;;;;1.95;1.85;;;;;;;13.93;64.45;99199.66;1719412;82;21721;-81
2022/05/27 00:25:49;;;;;;;3.75;2.05;;;;;;;13.92;64.64;99208.06;1739868;82;21074;-80
2022/05/27 00:28:15;;;;;;;2.17;1.67;;;;;;;13.93;64.52;99202.30;1739926;82;21082;-81
2022/05/27 00:30:43;;;;;;;2.20;1.80;;;;;;;13.93;64.53;99201.81;1739605;82;20999;-81
2022/05/27 00:33:10;;;;;;;2.62;2.12;;;;;;;13.93;64.52;99200.98;1740029;82;21051;-81
2022/05/27 00:35:39;;;;;;;6.45;2.30;;;;;;;13.93;64.51;99209.75;1739890;82;21071;-81
2022/05/27 00:38:05;;;;;;;3.90;1.90;;;;;;;13.93;64.47;99200.50;1736296;82;21139;-81
2022/05/27 00:40:41;;;;;;;4.92;2.00;;;;;;;13.93;64.52;99204.94;1733907;82;21103;-80
2022/05/27 00:43:08;;;;;;;6.20;2.00;;;;;;;13.94;64.47;99210.63;1733657;82;21040;-81
2022/05/27 00:45:36;;;;;;;2.10;1.85;;;;;;;13.93;64.48;99210.23;1734079;82;21036;-81
2022/05/27 00:48:08;;;;;;;2.33;2.00;;;;;;;13.93;64.60;99216.84;1733858;82;21154;-81
2022/05/27 00:50:38;;;;;;;2.80;2.02;;;;;;;13.92;64.66;99221.77;1733895;82;21445;-81
2022/05/27 00:53:07;;;;;;;5.20;2.37;;;;;;;13.92;64.70;99227.05;1741424;81;21089;-81
2022/05/27 00:55:38;;;;;;;3.25;1.92;;;;;;;13.91;64.79;99230.63;1753118;81;21057;-81
2022/05/27 00:58:12;;;;;;;1.87;1.77;;;;;;;13.91;64.82;99238.56;1753044;81;21081;-81
2022/05/27 01:00:39;;;;;;;6.90;2.10;;;;;;;13.92;64.82;99228.38;1753233;81;21943;-81
2022/05/27 01:03:06;;;;;;;2.17;1.85;;;;;;;13.93;64.93;99225.63;1753107;81;22013;-81
2022/05/27 01:05:33;;;;;;;2.72;1.82;;;;;;;13.92;65.04;99219.12;1753137;81;23029;-81
2022/05/27 01:08:05;;;;;;;2.47;1.60;;;;;;;13.91;65.06;99222.69;1753338;81;22078;-81
2022/05/27 01:10:52;;;;;;;4.53;1.75;;;;;;;13.91;65.12;99230.63;1753126;81;21474;-81
2022/05/27 01:13:33;;;;;;;4.15;1.80;;;;;;;13.89;65.31;99233.83;1753326;81;21286;-82
2022/05/27 01:16:41;;;;;;;2.52;1.80;;;;;;;13.86;65.43;99235.30;1753008;81;21089;-82
2022/05/27 01:23:23;;;;;;;1.87;1.77;;;;;;;13.83;65.63;99252.65;1753101;81;21062;-81
2022/05/27 01:26:18;;;;;;;3.37;1.98;;;;;;;13.80;65.79;99250.16;1753336;81;21074;-81
2022/05/27 01:28:55;;;;;;;6.87;2.10;;;;;;;13.80;65.93;99248.84;1736513;81;21071;-81
2022/05/27 01:31:38;;;;;;;6.42;1.92;;;;;;;13.80;65.98;99236.49;1753049;81;20970;-81
2022/05/27 01:34:24;;;;;;;7.53;1.87;;;;;;;13.80;66.14;99243.55;1753069;81;21069;-81
2022/05/27 01:37:24;;;;;;;5.05;1.90;;;;;;;13.78;66.24;99237.49;1752903;81;21646;-81
2022/05/27 01:40:09;;;;;;;4.87;1.92;;;;;;;13.76;66.28;99236.25;1753308;81;21026;-81
2022/05/27 01:43:03;;;;;;;4.50;1.90;;;;;;;13.73;66.35;99230.67;1753422;81;21606;-81
2022/05/27 01:46:01;;;;;;;4.35;1.80;;;;;;;13.69;66.60;99241.00;1753387;81;21038;-81
2022/05/27 01:48:34;;;;;;;5.10;2.15;;;;;;;13.66;66.82;99235.02;1752946;81;21050;-81
2022/05/27 01:51:09;;;;;;;3.45;1.85;;;;;;;13.64;66.80;99240.86;1726963;81;21596;-82
2022/05/27 01:54:27;;;;;;;2.65;1.77;;;;;;;13.60;67.01;99240.17;1753327;81;21109;-81
2022/05/27 01:57:05;;;;;;;3.45;1.75;;;;;;;13.57;67.14;99246.92;1753165;81;21137;-81
2022/05/27 02:00:09;;;;;;;2.70;1.95;;;;;;;13.53;67.33;99237.43;1753077;81;21045;-81
2022/05/27 02:02:40;;;;;;;1.95;1.85;;;;;;;13.49;67.39;99242.50;1753467;81;21478;-81
2022/05/27 02:05:15;;;;;;;5.75;1.80;;;;;;;13.45;67.57;99246.21;1753027;81;21035;-81
2022/05/27 02:07:53;;;;;;;16.20;1.90;;;;;;;13.43;67.67;99250.73;1753475;81;21101;-81
2022/05/27 02:10:36;;;;;;;2.40;1.90;;;;;;;13.42;67.93;99241.95;1753089;81;21114;-81
2022/05/27 02:13:11;;;;;;;2.00;1.80;;;;;;;13.41;68.11;99250.80;1753322;81;20990;-81
2022/05/27 02:15:45;;;;;;;8.28;1.87;;;;;;;13.42;68.38;99263.57;1753201;81;21066;-81
2022/05/27 02:18:32;;;;;;;2.27;1.90;;;;;;;13.41;68.61;99267.98;1753411;81;21046;-81
2022/05/27 02:21:18;;;;;;;4.25;2.08;;;;;;;13.42;68.72;99268.86;1753108;81;21042;-81
2022/05/27 02:23:58;;;;;;;2.45;1.62;;;;;;;13.42;68.92;99270.17;1753683;81;21585;-82
2022/05/27 02:26:32;;;;;;;2.17;1.55;;;;;;;13.41;69.06;99284.31;1753122;81;21086;-80
2022/05/27 02:29:02;;;;;;;5.72;1.75;;;;;;;13.42;69.16;99282.07;1753334;81;21121;-81
2022/05/27 02:31:32;;;;;;;1.52;1.42;;;;;;;13.41;69.38;99289.12;1752437;81;21002;-81
2022/05/27 02:36:56;;;;;;;1.65;1.50;;;;;;;13.39;69.40;99290.99;1752988;81;21532;-81
2022/05/27 02:39:23;;;;;;;1.70;1.57;;;;;;;13.41;69.41;99284.31;1753165;81;26656;-81
2022/05/27 02:42:30;;;;;;;2.30;1.50;;;;;;;13.42;69.46;99286.03;1753145;81;21050;-82
2022/05/27 02:45:02;;;;;;;2.35;1.35;;;;;;;13.43;69.49;99282.00;1745617;81;21039;-81
2022/05/27 02:48:12;;;;;;;3.67;1.32;;;;;;;13.43;69.65;99282.44;1742056;82;21079;-82
2022/05/27 02:50:56;;;;;;;1.40;1.30;;;;;;;13.42;69.71;99280.75;1742074;82;21812;-82
2022/05/27 02:53:30;;;;;;;4.00;1.72;;;;;;;13.42;69.95;99276.78;1741451;81;21008;-82
2022/05/27 02:56:26;;;;;;;4.47;1.70;;;;;;;13.40;69.89;99285.23;1689383;83;22290;-82
2022/05/27 02:58:54;;;;;;;5.45;1.15;;;;;;;13.36;70.11;99288.05;1709527;83;21014;-82
2022/05/27 03:01:21;;;;;;;3.10;1.40;;;;;;;13.37;70.15;99288.90;1709588;83;21369;-82
2022/05/27 03:03:48;;;;;;;5.17;1.40;;;;;;;13.38;70.41;99285.30;1709478;83;21595;-82
2022/05/27 03:06:29;;;;;;;1.47;1.37;;;;;;;13.38;70.57;99286.19;1709684;83;21576;-82
2022/05/27 03:09:18;;;;;;;7.58;1.05;;;;;;;13.41;70.65;99286.95;1709478;83;21066;-80
2022/05/27 03:12:10;;;;;;;8.23;1.45;;;;;;;13.42;70.81;99292.64;1709492;83;21050;-82
2022/05/27 03:15:03;;;;;;;2.27;1.52;;;;;;;13.41;70.91;99295.73;1709728;83;20987;-81
2022/05/27 03:17:57;;;;;;;5.45;1.70;;;;;;;13.41;70.92;99297.52;1709455;83;21207;-87
2022/05/27 03:20:49;;;;;;;3.92;1.72;;;;;;;13.41;71.11;99300.17;1705780;83;21066;-87
2022/05/27 03:23:49;;;;;;;5.78;1.98;;;;;;;13.41;71.35;99302.81;1709611;83;21022;-87
2022/05/27 03:26:32;;;;;;;1.95;1.80;;;;;;;13.41;71.45;99311.59;1708980;83;21133;-82
2022/05/27 03:29:34;;;;;;;2.92;1.90;;;;;;;13.40;71.45;99305.05;1709750;83;21587;-81
2022/05/27 03:32:27;;;;;;;4.78;1.40;;;;;;;13.39;71.56;99309.48;1709685;83;21170;-81
2022/05/27 03:35:20;;;;;;;6.25;1.82;;;;;;;13.37;71.71;99308.24;1709432;83;21097;-80
2022/05/27 03:38:09;;;;;;;2.08;1.60;;;;;;;13.36;71.88;99311.84;1709602;83;21521;-83
2022/05/27 03:40:57;;;;;;;3.45;1.47;;;;;;;13.36;71.97;99306.99;1709443;83;21049;-82
2022/05/27 03:43:23;;;;;;;2.10;1.25;;;;;;;13.37;72.07;99313.53;1687793;83;21050;-84
2022/05/27 03:45:56;;;;;;;2.08;1.50;;;;;;;13.38;72.16;99295.43;1683447;83;21136;-83
2022/05/27 03:48:22;;;;;;;10.43;1.90;;;;;;;13.41;72.33;99300.17;1709193;83;21513;-83
2022/05/27 03:50:51;;;;;;;2.52;1.80;;;;;;;13.41;72.21;99293.56;1709227;83;21096;-83
2022/05/27 03:53:17;;;;;;;2.15;1.52;;;;;;;13.42;72.36;99293.97;1709185;83;21077;-84
2022/05/27 03:55:47;;;;;;;4.40;1.80;;;;;;;13.45;72.13;99293.78;1713364;83;21053;-82
2022/05/27 03:58:15;;;;;;;4.47;1.70;;;;;;;13.50;72.14;99295.73;1713952;83;21153;-83
2022/05/27 04:00:42;;;;;;;4.95;1.62;;;;;;;13.53;72.10;99298.22;1713918;83;21529;-83
2022/05/27 04:03:10;;;;;;;2.15;1.70;;;;;;;13.56;72.10;99306.00;1713909;83;21065;-84
2022/05/27 04:05:38;;;;;;;3.87;1.80;;;;;;;13.60;71.89;99304.05;1714190;83;21597;-83
2022/05/27 04:08:05;;;;;;;4.12;1.82;;;;;;;13.63;71.87;99308.72;1686068;83;21069;-84
2022/05/27 04:10:33;;;;;;;4.22;2.17;;;;;;;13.66;71.71;99305.92;1713940;83;21049;-84
2022/05/27 04:13:00;;;;;;;6.45;1.92;;;;;;;13.71;71.58;99316.27;1713923;83;21069;-87
2022/05/27 04:15:26;;;;;;;4.65;2.47;;;;;;;13.72;71.27;99313.55;1714179;82;21156;-87
2022/05/27 04:17:53;;;;;;;3.35;2.20;;;;;;;13.74;71.22;99315.65;1713940;83;21141;-88
2022/05/27 04:20:20;;;;;;;8.28;2.77;;;;;;;13.74;71.26;99313.00;1714150;83;21183;-87
2022/05/27 04:22:46;;;;;;;15.18;2.20;;;;;;;13.77;71.12;99308.48;1714204;82;21115;-87
2022/05/27 04:25:13;;;;;;;1.67;1.52;;;;;;;13.80;71.06;99316.27;1714160;83;21049;-87
2022/05/27 04:27:40;;;;;;;3.40;1.92;;;;;;;13.84;71.29;99316.52;1714118;83;21536;-86
2022/05/27 04:30:10;;;;;;;9.78;2.72;;;;;;;13.86;71.11;99312.84;1714302;83;21116;-83
2022/05/27 04:32:37;;;;;;;9.68;1.85;;;;;;;13.88;70.94;99307.48;1714252;83;21076;-81
2022/05/27 04:35:05;;;;;;;6.05;1.95;;;;;;;13.92;70.86;99309.05;1713876;82;21088;-81
2022/05/27 04:37:33;;;;;;;2.67;1.92;;;;;;;13.97;71.07;99310.98;1724083;82;21008;-81
2022/05/27 04:40:00;;;;;;;2.65;1.70;;;;;;;14.01;70.59;99314.32;1742004;82;21048;-81
2022/05/27 04:42:26;;;;;;;4.05;1.90;;;;;;;14.01;70.30;99313.84;1742224;82;21118;-81
2022/05/27 04:44:53;;;;;;;8.60;1.45;;;;;;;14.02;70.49;99310.27;1742052;82;21110;-81
2022/05/27 04:47:19;;;;;;;6.40;1.50;;;;;;;14.03;70.11;99303.19;1742001;82;22241;-79
2022/05/27 04:49:53;;;;;;;6.58;1.60;;;;;;;14.03;70.13;99310.64;1741782;82;21460;-82
2022/05/27 04:52:24;;;;;;;4.92;1.72;;;;;;;14.05;70.24;99316.70;1742066;82;21013;-81
2022/05/27 04:54:52;;;;;;;2.87;1.20;;;;;;;14.09;70.20;99315.63;1742070;82;21118;-82
2022/05/27 04:57:23;;;;;;;5.42;1.87;;;;;;;14.13;69.97;99320.28;1750102;82;21043;-80
2022/05/27 04:59:49;;;;;;;11.78;2.37;;;;;;;14.16;69.99;99323.25;1750193;82;21109;-80
2022/05/27 05:02:20;;;;;;;5.25;2.10;;;;;;;14.19;70.11;99317.77;1749853;82;21416;-81
2022/05/27 05:04:48;;;;;;;7.55;1.67;;;;;;;14.24;69.51;99324.55;1750193;82;21079;-80
2022/05/27 05:07:16;;;;;;;6.70;1.80;;;;;;;14.29;69.82;99321.19;1750046;82;21575;-88
2022/05/27 05:09:42;;;;;;;2.17;1.55;;;;;;;14.36;69.52;99321.72;1749935;82;21031;-86
2022/05/27 05:12:10;;;;;;;4.15;2.58;;;;;;;14.41;69.19;99324.97;1749787;82;21740;-87
2022/05/27 05:14:37;;;;;;;4.40;1.90;;;;;;;14.41;68.43;99328.95;1749822;82;21047;-88
2022/05/27 05:17:03;;;;;;;3.30;1.82;;;;;;;14.41;68.20;99317.03;1749895;82;21210;-88
2022/05/27 05:19:30;;;;;;;9.28;1.50;;;;;;;14.43;68.51;99330.19;1749957;82;21523;-88
2022/05/27 05:21:56;;;;;;;2.77;1.40;;;;;;;14.44;67.90;99320.84;1749986;82;21039;-80
2022/05/27 05:24:23;;;;;;;5.53;1.32;;;;;;;14.46;67.61;99320.29;1750018;82;21087;-81
2022/05/27 05:26:50;;;;;;;3.55;1.60;;;;;;;14.52;66.68;99322.22;1750374;82;21060;-81
2022/05/27 05:29:17;;;;;;;1.92;1.32;;;;;;;14.55;66.50;99317.61;1750062;82;20995;-80
2022/05/27 05:31:43;;;;;;;1.75;1.20;;;;;;;14.62;66.94;99312.87;1750226;82;21059;-80
2022/05/27 05:34:11;;;;;;;5.08;1.45;;;;;;;14.66;65.86;99331.64;1750062;82;21127;-82
2022/05/27 05:36:37;;;;;;;3.17;1.10;;;;;;;14.67;65.23;99315.64;1750177;82;21162;-80
2022/05/27 05:39:04;;;;;;;3.27;1.42;;;;;;;14.67;64.42;99317.44;1749710;82;21626;-81
2022/05/27 05:41:34;;;;;;;7.22;1.40;;;;;;;14.69;65.04;99315.55;1749887;82;21535;-81
2022/05/27 05:44:01;;;;;;;1.72;1.00;;;;;;;14.72;65.18;99317.20;1749822;82;21039;-81
2022/05/27 05:46:28;;;;;;;6.83;1.60;;;;;;;14.75;64.68;99320.52;1750071;82;21133;-81
2022/05/27 05:48:55;;;;;;;1.07;0.98;;;;;;;14.75;65.44;99313.91;1730908;82;21614;-81
2022/05/27 05:51:23;;;;;;;1.92;1.00;;;;;;;14.77;64.00;99319.97;1749976;82;21024;-81
2022/05/27 05:53:51;;;;;;;1.42;1.12;;;;;;;14.76;64.32;99316.95;1750430;82;21530;-80
2022/05/27 05:56:18;;;;;;;3.55;1.30;;;;;;;14.78;64.13;99320.36;1750278;82;21581;-80
2022/05/27 05:58:50;;;;;;;1.70;1.10;;;;;;;14.81;63.36;99317.55;1750471;82;21621;-79
2022/05/27 06:01:17;;;;;;;1.60;1.30;;;;;;;14.82;63.55;99316.59;1731790;82;21242;-80
2022/05/27 06:03:44;;;;;;;1.98;1.35;;;;;;;14.86;63.69;99323.45;1749812;82;20985;-81
2022/05/27 06:06:12;;;;;;;1.87;1.67;;;;;;;14.89;63.65;99316.27;1750054;82;21063;-80
2022/05/27 06:08:39;;;;;;;8.50;2.08;;;;;;;14.92;62.94;99308.15;1750540;82;21119;-86
2022/05/27 06:11:08;;;;;;;4.03;1.90;;;;;;;14.97;62.78;99302.13;1750227;82;21110;-88
2022/05/27 06:13:36;;;;;;;1.35;1.25;;;;;;;15.05;63.33;99305.20;1750228;82;21986;-87
2022/05/27 06:16:06;;;;;;;4.65;2.00;;;;;;;15.19;61.62;99299.95;1750512;82;21577;-85
2022/05/27 06:18:33;;;;;;;3.60;1.30;;;;;;;15.30;59.07;99302.00;1750318;82;21117;-81
2022/05/27 06:21:00;;;;;;;2.35;1.27;;;;;;;15.35;58.58;99301.75;1750464;82;21221;-80
2022/05/27 06:23:29;;;;;;;4.05;1.70;;;;;;;15.37;58.69;99317.09;1750355;82;21079;-81
2022/05/27 06:26:04;;;;;;;1.57;1.12;;;;;;;15.40;57.87;99294.38;1750225;82;21161;-81
2022/05/27 06:36:45;;;;;;;3.80;1.10;;;;;;;15.60;57.98;99298.03;1742281;82;20993;-80
2022/05/27 06:39:12;;;;;;;2.12;1.30;;;;;;;15.68;57.53;99298.05;1741955;82;21033;-80
2022/05/27 06:41:39;;;;;;;4.80;1.12;;;;;;;15.75;57.51;99291.01;1742105;82;21039;-81
2022/05/27 06:44:06;;;;;;;3.25;1.10;;;;;;;15.79;57.09;99286.37;1742324;82;21048;-80
2022/05/27 06:46:33;;;;;;;7.58;1.17;;;;;;;15.83;57.77;99279.92;1741871;82;21071;-80
2022/05/27 06:49:00;;;;;;;5.33;2.12;;;;;;;15.93;57.82;99281.06;1741981;82;21131;-79
2022/05/27 06:51:27;;;;;;;1.92;1.00;;;;;;;16.10;58.26;99283.17;1742067;82;21172;-80
2022/05/27 06:53:53;;;;;;;3.92;1.00;;;;;;;16.27;56.12;99267.53;1741776;82;21111;-79
2022/05/27 06:56:21;;;;;;;3.62;1.32;;;;;;;16.40;55.38;99267.63;1739320;81;21023;-80
2022/05/27 06:58:47;;;;;;;2.25;1.20;;;;;;;16.48;55.79;99283.94;1740610;82;21097;-80
2022/05/27 07:01:14;;;;;;;2.40;1.10;;;;;;;16.56;54.75;99273.69;1740758;82;21025;-81
2022/05/27 07:03:40;;;;;;;4.42;1.12;;;;;;;16.64;53.69;99263.44;1740680;82;21565;-80
2022/05/27 07:06:09;;;;;;;4.35;1.00;;;;;;;16.70;54.35;99263.02;1740186;82;21117;-82
2022/05/27 07:08:36;;;;;;;2.83;1.30;;;;;;;16.79;54.38;99258.08;1740507;82;21077;-80
2022/05/27 07:11:03;;;;;;;6.22;1.72;;;;;;;16.90;52.68;99251.63;1740541;82;21101;-80
2022/05/27 07:13:31;;;;;;;3.37;1.40;;;;;;;16.94;52.79;99250.46;1740781;82;21057;-80
2022/05/27 07:15:57;;;;;;;5.40;1.70;;;;;;;17.01;54.14;99242.48;1740628;82;21144;-79
2022/05/27 07:18:24;;;;;;;4.75;1.42;;;;;;;17.18;53.89;99253.79;1740892;82;21098;-79
2022/05/27 07:20:50;;;;;;;7.00;1.50;;;;;;;17.29;52.59;99234.48;1740478;82;21094;-83
2022/05/27 07:23:18;;;;;;;5.97;1.10;;;;;;;17.36;51.78;99231.30;1740225;82;21105;-80
2022/05/27 07:25:45;;;;;;;2.72;1.12;;;;;;;17.45;50.09;99240.48;1740727;82;21000;-80
2022/05/27 07:28:13;;;;;;;2.55;1.10;;;;;;;17.51;49.99;99237.88;1740393;82;21749;-79
2022/05/27 07:30:41;;;;;;;3.77;1.10;;;;;;;17.58;49.60;99241.33;1740448;82;21124;-80
2022/05/27 07:33:09;;;;;;;2.22;1.30;;;;;;;17.65;48.82;99228.45;1740446;82;21030;-81
2022/05/27 07:35:36;;;;;;;3.08;1.30;;;;;;;17.77;49.09;99227.64;1740818;82;21014;-80
2022/05/27 07:38:03;;;;;;;3.52;1.07;;;;;;;17.94;49.22;99226.98;1740648;82;21029;-80
2022/05/27 07:40:29;;;;;;;4.90;1.00;;;;;;;18.13;47.81;99219.88;1740403;82;21123;-80
2022/05/27 07:42:56;;;;;;;3.17;1.00;;;;;;;18.24;48.25;99219.11;1740634;82;21125;-78
2022/05/27 07:45:27;;;;;;;2.45;1.00;;;;;;;18.32;46.45;99230.91;1740631;82;21147;-80
2022/05/27 07:47:54;;;;;;;3.50;1.20;;;;;;;18.38;45.31;99225.16;1740332;82;22089;-80
2022/05/27 07:50:20;;;;;;;3.30;1.37;;;;;;;18.44;45.07;99220.34;1740577;82;21022;-79
2022/05/27 07:52:47;;;;;;;3.40;1.00;;;;;;;18.45;44.87;99230.05;1740459;82;21049;-81
2022/05/27 07:55:13;;;;;;;5.28;0.90;;;;;;;18.35;46.31;99217.38;1740681;82;21061;-79
2022/05/27 07:57:44;;;;;;;1.05;0.90;;;;;;;18.33;46.65;99217.13;1740642;82;21163;-82
2022/05/27 08:00:18;;;;;;;5.30;0.95;;;;;;;18.31;44.79;99217.73;1740901;82;21014;-79
2022/05/27 08:02:44;;;;;;;9.10;1.30;;;;;;;18.28;45.22;99220.12;1739935;82;20994;-80
2022/05/27 08:05:15;;;;;;;4.28;1.62;;;;;;;18.32;44.26;99212.75;1740778;82;21237;-81
2022/05/27 08:07:42;;;;;;;6.90;1.32;;;;;;;18.40;44.18;99217.05;1740642;82;21018;-80
2022/05/27 08:10:09;;;;;;;2.42;0.90;;;;;;;18.52;44.01;99217.48;1740560;82;21057;-79
2022/05/27 08:12:36;;;;;;;3.10;0.70;;;;;;;18.58;44.20;99218.88;1740551;82;21003;-80
2022/05/27 08:15:04;;;;;;;4.97;1.02;;;;;;;18.59;42.54;99209.06;1740367;82;21019;-79
2022/05/27 08:17:30;;;;;;;2.52;0.70;;;;;;;18.61;43.11;99213.80;1740276;82;22417;-80
2022/05/27 08:19:57;;;;;;;3.80;0.90;;;;;;;18.62;42.30;99210.17;1740652;82;21050;-79
2022/05/27 08:22:25;;;;;;;0.82;0.70;;;;;;;18.63;42.86;99203.90;1740728;82;21124;-80
2022/05/27 08:24:51;;;;;;;2.15;0.90;;;;;;;18.70;43.10;99202.48;1740479;82;21002;-80
2022/05/27 08:27:18;;;;;;;3.20;1.10;;;;;;;18.75;41.97;99206.98;1740478;82;21013;-80
2022/05/27 08:29:44;;;;;;;6.87;1.30;;;;;;;18.79;42.92;99205.78;1740703;82;21130;-80
2022/05/27 08:32:11;;;;;;;3.00;1.00;;;;;;;18.87;43.49;99198.11;1740591;82;21521;-81
2022/05/27 08:40:31;;;;;;;4.83;0.90;;;;;;;19.30;41.25;99210.90;1734201;82;21508;-79
2022/05/27 08:43:35;;;;;;;3.98;1.35;;;;;;;19.41;40.66;99192.73;1733583;82;22273;-80
2022/05/27 08:46:26;;;;;;;3.27;1.10;;;;;;;19.53;41.50;99177.59;1733488;82;37494;-81
2022/05/27 08:48:59;;;;;;;4.17;1.00;;;;;;;19.70;39.98;99186.95;1733760;82;21103;-79
2022/05/27 08:51:45;;;;;;;2.95;0.90;;;;;;;19.84;40.63;99186.78;1733655;82;20997;-79
2022/05/27 08:54:26;;;;;;;2.40;0.70;;;;;;;19.91;39.93;99168.45;1733533;82;21056;-80
2022/05/27 08:59:46;;;;;;;12.23;0.80;;;;;;;20.04;40.54;99185.20;1717124;82;21152;-79
2022/05/27 09:02:25;;;;;;;3.75;0.72;;;;;;;20.07;38.62;99183.26;1740782;82;22146;-79
2022/05/27 09:05:14;;;;;;;1.98;0.82;;;;;;;20.06;39.15;99176.23;1740767;82;21627;-79
2022/05/27 09:07:49;;;;;;;5.53;0.90;;;;;;;20.02;39.40;99184.48;1740665;82;21132;-81
2022/05/27 09:10:27;;;;;;;2.65;0.93;;;;;;;19.95;38.93;99176.57;1740257;82;21164;-80
2022/05/27 09:13:15;;;;;;;2.42;0.95;;;;;;;19.85;39.30;99180.48;1735179;82;21354;-81
2022/05/27 09:15:59;;;;;;;3.60;1.10;;;;;;;19.76;39.78;99181.19;1740549;82;21064;-79
2022/05/27 09:19:09;;;;;;;3.02;1.40;;;;;;;19.64;38.93;99178.95;1738874;82;21509;-80
2022/05/27 09:21:45;;;;;;;3.27;0.95;;;;;;;19.65;40.60;99190.01;1740191;82;21065;-80
2022/05/27 09:24:43;;;;;;;4.12;0.82;;;;;;;19.88;39.59;99186.55;1739395;82;21699;-80
2022/05/27 09:27:20;;;;;;;7.37;1.35;;;;;;;20.04;39.32;99162.50;1740441;82;21125;-80
2022/05/27 09:29:56;;;;;;;3.60;0.90;;;;;;;20.14;39.11;99160.42;1740423;82;21576;-81
2022/05/27 09:32:51;;;;;;;2.00;0.72;;;;;;;20.16;39.26;99169.19;1740684;82;21132;-80
2022/05/27 09:35:45;;;;;;;1.77;0.90;;;;;;;20.11;38.26;99171.38;1707368;82;21065;-80
2022/05/27 09:38:20;;;;;;;4.58;0.85;;;;;;;20.03;39.92;99158.12;1740904;82;21561;-79
2022/05/27 09:41:03;;;;;;;2.22;0.90;;;;;;;20.09;39.23;99154.60;1741250;82;25771;-80
2022/05/27 09:43:45;;;;;;;5.22;0.90;;;;;;;20.03;39.56;99168.81;1740744;82;21061;-79
2022/05/27 09:46:15;;;;;;;1.25;0.70;;;;;;;19.94;39.47;99166.88;1741037;82;21694;-80
2022/05/27 09:48:42;;;;;;;2.05;0.85;;;;;;;19.85;39.34;99152.91;1740605;82;20974;-78
2022/05/27 09:51:09;;;;;;;2.90;0.80;;;;;;;19.92;39.88;99150.14;1741092;82;21210;-80
2022/05/27 09:53:44;;;;;;;4.55;1.12;;;;;;;20.08;40.71;99146.24;1740560;82;21140;-79
2022/05/27 09:56:13;;;;;;;6.50;0.98;;;;;;;20.27;38.97;99139.77;1720386;82;21006;-80
2022/05/27 09:58:44;;;;;;;4.80;1.25;;;;;;;20.39;40.06;99140.59;1740794;82;21580;-81
2022/05/27 10:01:26;;;;;;;4.53;0.93;;;;;;;20.54;39.85;99139.83;1740640;82;21104;-80
2022/05/27 10:04:04;;;;;;;5.08;1.20;;;;;;;20.62;39.84;99130.69;1740738;82;21053;-80
2022/05/27 10:06:32;;;;;;;2.80;0.90;;;;;;;20.72;39.02;99124.14;1740554;82;22274;-80
2022/05/27 10:09:01;;;;;;;4.95;1.07;;;;;;;20.73;39.32;99117.33;1740999;82;21007;-81
2022/05/27 10:11:29;;;;;;;5.40;1.00;;;;;;;20.70;39.01;99109.56;1740632;82;21568;-80
2022/05/27 10:14:31;;;;;;;6.47;1.32;;;;;;;20.65;38.62;99120.28;1713544;82;21656;-80
2022/05/27 10:17:13;;;;;;;1.52;0.80;;;;;;;20.68;38.99;99120.88;1740584;82;21155;-81
2022/05/27 10:19:42;;;;;;;6.58;0.90;;;;;;;20.69;38.45;99109.69;1740847;82;21045;-81
2022/05/27 10:22:13;;;;;;;4.03;0.90;;;;;;;20.71;39.85;99092.55;1740650;82;21606;-80
2022/05/27 10:24:42;;;;;;;5.20;1.10;;;;;;;20.90;39.75;99107.05;1737380;82;21053;-85
2022/05/27 10:27:17;;;;;;;4.00;1.10;;;;;;;21.08;38.75;99116.20;1740605;82;21064;-85
2022/05/27 10:29:54;;;;;;;11.48;1.30;;;;;;;21.10;37.94;99118.75;1740865;82;21803;-85
2022/05/27 10:32:41;;;;;;;4.55;1.00;;;;;;;21.05;37.94;99091.55;1740469;82;20995;-83
2022/05/27 10:35:23;;;;;;;2.85;0.90;;;;;;;21.02;37.87;99110.52;1740916;82;21043;-80
2022/05/27 10:38:10;;;;;;;3.10;1.02;;;;;;;20.85;37.62;99092.73;1739258;82;21065;-79
2022/05/27 10:41:01;;;;;;;2.67;0.95;;;;;;;20.66;38.14;99106.80;1740968;82;21081;-79
2022/05/27 10:43:58;;;;;;;6.83;1.32;;;;;;;20.53;38.17;99110.09;1736611;82;21147;-79
2022/05/27 10:46:30;;;;;;;2.50;1.20;;;;;;;20.42;39.21;99098.92;1733616;81;21982;-78
2022/05/27 10:49:31;;;;;;;5.40;1.50;;;;;;;20.37;38.98;99096.63;1711864;82;21531;-81
2022/05/27 10:52:29;;;;;;;2.22;1.15;;;;;;;20.32;39.18;99088.14;1734086;82;21111;-79
2022/05/27 10:55:20;;;;;;;8.78;3.25;;;;;;;20.29;39.66;99081.74;1733832;82;21047;-80
2022/05/27 11:02:04;;;;;;;7.75;1.20;;;;;;;20.23;39.62;99086.23;1747981;82;21049;-82
2022/05/27 11:04:41;;;;;;;7.05;1.57;;;;;;;20.17;39.33;99074.24;1744994;82;21614;-80
2022/05/27 11:07:22;;;;;;;4.90;1.00;;;;;;;20.13;40.44;99091.97;1748310;82;21085;-79
2022/05/27 11:10:00;;;;;;;5.30;1.50;;;;;;;20.12;40.39;99082.25;1748334;82;21066;-81
2022/05/27 11:16:11;;;;;;;3.25;1.30;;;;;;;20.09;40.08;99074.02;1747887;81;21086;-80
2022/05/27 11:19:16;;;;;;;5.03;1.50;;;;;;;20.08;40.87;99070.13;1748437;81;21470;-80
2022/05/27 11:22:35;;;;;;;2.55;1.15;;;;;;;20.07;40.62;99071.09;1748428;82;21641;-80
2022/05/27 11:25:19;;;;;;;4.33;2.00;;;;;;;20.04;40.18;99058.36;1748314;82;21073;-79
2022/05/27 11:28:14;;;;;;;5.25;1.60;;;;;;;20.02;39.93;99073.66;1748275;81;21809;-80
2022/05/27 11:31:25;;;;;;;3.20;1.45;;;;;;;19.99;40.27;99058.38;1747123;80;21644;-81
2022/05/27 11:34:17;;;;;;;3.22;1.35;;;;;;;20.01;40.75;99052.42;1748108;81;21063;-81
2022/05/27 11:37:25;;;;;;;5.42;1.60;;;;;;;20.14;41.55;99049.58;1748387;82;21035;-80
2022/05/27 11:40:09;;;;;;;4.35;1.60;;;;;;;20.25;40.69;99042.88;1748135;81;21090;-81
2022/05/27 11:42:49;;;;;;;;;;;;;;;20.27;40.47;99020.88;1750857;82;21134;-80
2022/05/27 11:45:20;;;;;;;1.98;1.52;;;;;;;20.31;40.70;99030.82;1747781;82;20137;-80
2022/05/27 11:48:08;;;;;;;3.95;1.90;;;;;;;20.47;40.74;99025.07;1748415;81;21056;-82
2022/05/27 11:51:05;;;;;;;3.72;1.90;;;;;;;20.68;41.24;99012.61;1748136;82;21062;-79
2022/05/27 11:53:43;;;;;;;3.55;1.62;;;;;;;20.93;39.83;99022.06;1748126;81;21113;-82
2022/05/27 11:56:56;;;;;;;5.45;1.47;;;;;;;21.05;38.98;99010.80;1748249;82;21106;-80
2022/05/27 11:59:35;;;;;;;5.80;1.30;;;;;;;21.05;39.33;98996.59;1748123;82;21083;-80
2022/05/27 12:02:16;;;;;;;7.12;1.32;;;;;;;20.96;39.09;99007.09;1748497;81;21050;-82
2022/05/27 12:05:04;;;;;;;6.05;1.45;;;;;;;20.85;39.48;99004.48;1746623;82;21046;-82
2022/05/27 12:07:56;;;;;;;5.35;1.50;;;;;;;20.77;40.65;98998.95;1748039;82;21003;-80
2022/05/27 12:10:34;;;;;;;4.08;1.47;;;;;;;20.70;40.20;98993.77;1723012;82;21129;-81
2022/05/27 12:13:32;;;;;;;1.30;1.20;;;;;;;20.65;40.34;98994.16;1748296;82;21050;-81
2022/05/27 12:16:06;;;;;;;6.75;1.22;;;;;;;20.66;40.07;98994.98;1748442;82;21034;-80
2022/05/27 12:18:53;;;;;;;4.78;1.02;;;;;;;20.72;41.13;98987.30;1747945;82;21066;-80
2022/05/27 12:21:22;;;;;;;1.22;0.75;;;;;;;20.86;39.98;98982.59;1748431;81;21089;-80
2022/05/27 12:23:54;;;;;;;4.00;1.00;;;;;;;20.93;39.74;98995.79;1748316;82;21853;-79
2022/05/27 12:26:28;;;;;;;2.60;0.93;;;;;;;20.95;39.47;98976.47;1748516;82;21007;-81
2022/05/27 12:28:56;;;;;;;1.80;0.85;;;;;;;20.98;39.58;98969.53;1748431;82;21132;-82
2022/05/27 12:31:24;;;;;;;3.27;0.75;;;;;;;21.07;39.25;98974.56;1723373;82;21640;-80
2022/05/27 12:33:50;;;;;;;7.20;1.15;;;;;;;21.18;39.70;98958.90;1748233;82;22033;-81
2022/05/27 12:36:26;;;;;;;2.80;1.10;;;;;;;21.34;39.51;98951.22;1748548;82;21500;-82
2022/05/27 12:38:57;;;;;;;10.10;1.10;;;;;;;21.53;39.94;98947.78;1748256;81;21101;-79
2022/05/27 12:41:39;;;;;;;1.30;0.65;;;;;;;21.72;38.87;98963.06;1748220;82;21565;-80
2022/05/27 12:44:28;;;;;;;2.40;0.85;;;;;;;21.74;38.38;98936.98;1748419;82;21078;-80